Time;durP1;ratioP1;P1;durP2;ratioP2;P2;SDS_P1;SDS_P2;PMS_P1;PMS_P2;Temp;Humidity;BMP_temperature;BMP_pressure;BME280_temperature;BME280_humidity;BME280_pressure;Samples;Min_cycle;Max_cycle;Signal;HPM_P1;HPM_P2
2021/07/10 00:00:51;;;;;;;21.08;17.70;;;;;;;16.45;100.00;100848.31;5058506;28;20053;-61
2021/07/10 00:03:18;;;;;;;20.10;17.38;;;;;;;16.45;100.00;100850.13;5045613;28;20069;-61
2021/07/10 00:05:45;;;;;;;22.40;19.13;;;;;;;16.42;100.00;100855.66;5066689;28;20063;-60
2021/07/10 00:08:11;;;;;;;22.02;19.60;;;;;;;16.37;100.00;100834.56;5065859;28;20504;-61
2021/07/10 00:10:38;;;;;;;20.80;17.35;;;;;;;16.34;100.00;100840.13;5055780;28;20056;-60
2021/07/10 00:13:04;;;;;;;22.45;18.15;;;;;;;16.34;100.00;100842.81;5058467;28;20569;-62
2021/07/10 00:15:31;;;;;;;20.17;18.02;;;;;;;16.32;100.00;100836.69;5054173;28;20893;-59
2021/07/10 00:17:58;;;;;;;19.92;17.83;;;;;;;16.32;100.00;100836.69;5045509;28;20671;-61
2021/07/10 00:20:24;;;;;;;21.13;17.08;;;;;;;16.32;100.00;100828.69;5049056;28;20079;-60
2021/07/10 00:22:51;;;;;;;19.33;16.75;;;;;;;16.32;100.00;100833.16;5047222;28;20059;-60
2021/07/10 00:25:19;;;;;;;20.92;17.88;;;;;;;16.32;100.00;100830.50;5044799;28;20491;-61
2021/07/10 00:27:47;;;;;;;26.00;18.02;;;;;;;16.28;100.00;100829.81;5048004;28;20056;-59
2021/07/10 00:30:17;;;;;;;21.02;18.67;;;;;;;16.26;100.00;100834.41;5052205;28;20060;-60
2021/07/10 00:32:44;;;;;;;20.02;17.88;;;;;;;16.20;100.00;100833.94;5044655;28;20059;-62
2021/07/10 00:35:11;;;;;;;20.05;17.90;;;;;;;16.10;100.00;100830.97;5045865;28;20074;-61
2021/07/10 00:37:38;;;;;;;20.70;18.50;;;;;;;16.02;100.00;100833.28;5045798;28;20471;-61
2021/07/10 00:40:06;;;;;;;20.25;18.15;;;;;;;15.93;100.00;100825.84;5043014;28;20048;-61
2021/07/10 00:42:34;;;;;;;20.85;17.05;;;;;;;15.93;100.00;100816.00;5034813;28;20155;-58
2021/07/10 00:45:01;;;;;;;19.65;17.60;;;;;;;15.93;100.00;100813.34;5047756;28;20041;-62
2021/07/10 00:47:27;;;;;;;23.67;18.35;;;;;;;15.93;100.00;100805.31;5044820;28;20045;-61
2021/07/10 00:49:54;;;;;;;21.38;17.55;;;;;;;15.95;100.00;100811.44;5048366;28;20063;-62
2021/07/10 00:52:20;;;;;;;21.65;18.33;;;;;;;15.95;100.00;100811.44;5046554;28;20064;-60
2021/07/10 00:54:47;;;;;;;21.20;17.92;;;;;;;15.93;100.00;100813.34;5045863;28;20068;-61
2021/07/10 00:57:15;;;;;;;23.17;18.45;;;;;;;15.87;100.00;100800.38;5048722;28;20052;-60
2021/07/10 00:59:42;;;;;;;22.40;19.60;;;;;;;15.84;100.00;100800.56;5046775;28;20083;-61
2021/07/10 01:02:09;;;;;;;21.27;17.60;;;;;;;15.83;100.00;100796.19;5048268;28;20714;-60
2021/07/10 01:04:36;;;;;;;21.02;17.60;;;;;;;15.86;100.00;100797.81;5048831;28;20045;-60
2021/07/10 01:07:03;;;;;;;19.40;17.33;;;;;;;15.87;100.00;100786.19;5052417;28;20419;-60
2021/07/10 01:09:31;;;;;;;20.50;17.30;;;;;;;15.86;100.00;100790.66;5043837;28;20049;-61
2021/07/10 01:11:57;;;;;;;19.83;16.98;;;;;;;15.87;100.00;100783.50;5048610;28;20063;-61
2021/07/10 01:14:24;;;;;;;20.67;16.52;;;;;;;15.86;100.00;100779.13;5048405;28;20056;-61
2021/07/10 01:16:51;;;;;;;23.85;16.52;;;;;;;15.85;100.00;100785.41;5040335;28;20047;-60
2021/07/10 01:19:27;;;;;;;21.42;18.10;;;;;;;15.83;100.00;100785.50;5053377;28;20052;-61
2021/07/10 01:21:55;;;;;;;20.52;17.80;;;;;;;15.87;100.00;100786.19;5053361;28;20048;-60
2021/07/10 01:24:22;;;;;;;18.85;16.85;;;;;;;15.85;100.00;100780.06;5039223;28;20053;-62
2021/07/10 01:26:49;;;;;;;21.02;17.45;;;;;;;15.81;100.00;100781.19;5046702;28;20053;-60
2021/07/10 01:29:16;;;;;;;20.77;16.10;;;;;;;15.79;100.00;100773.28;5049279;28;20053;-62
2021/07/10 01:31:43;;;;;;;19.35;17.38;;;;;;;15.77;100.00;100773.38;5048753;28;20057;-60
2021/07/10 01:34:10;;;;;;;19.42;17.40;;;;;;;15.75;100.00;100766.41;5047701;28;20124;-59
2021/07/10 01:36:36;;;;;;;21.20;16.98;;;;;;;15.76;100.00;100769.00;5048646;28;20530;-61
2021/07/10 01:39:06;;;;;;;18.65;16.15;;;;;;;15.79;100.00;100771.47;5050660;28;20053;-61
2021/07/10 01:41:47;;;;;;;17.60;15.68;;;;;;;15.79;100.00;100770.63;5046542;28;20060;-61
2021/07/10 01:44:14;;;;;;;21.23;16.88;;;;;;;15.78;100.00;100767.09;5055077;28;20056;-58
2021/07/10 01:46:41;;;;;;;21.83;16.70;;;;;;;15.77;100.00;100762.69;5053961;28;20080;-61
2021/07/10 01:49:07;;;;;;;22.85;17.30;;;;;;;15.74;100.00;100768.22;5053026;28;20049;-59
2021/07/10 01:51:34;;;;;;;18.73;15.85;;;;;;;15.74;100.00;100765.56;5042990;28;20045;-60
2021/07/10 01:54:00;;;;;;;18.20;16.35;;;;;;;15.75;100.00;100769.09;5044631;28;20048;-60
2021/07/10 01:56:27;;;;;;;17.17;15.38;;;;;;;15.72;100.00;100762.16;5054803;28;20420;-60
2021/07/10 01:58:54;;;;;;;21.33;16.15;;;;;;;15.73;100.00;100760.34;5048577;28;20063;-61
2021/07/10 02:01:22;;;;;;;17.10;15.30;;;;;;;15.72;100.00;100756.81;5055854;28;20041;-61
2021/07/10 02:03:49;;;;;;;15.73;14.10;;;;;;;15.72;100.00;100759.47;5044731;28;20527;-60
2021/07/10 02:06:16;;;;;;;16.77;15.18;;;;;;;15.73;100.00;100763.00;5047476;28;20491;-60
2021/07/10 02:08:43;;;;;;;18.80;15.55;;;;;;;15.72;100.00;100755.94;5044676;28;20060;-61
2021/07/10 02:11:10;;;;;;;16.67;13.85;;;;;;;15.71;100.00;100755.09;5042248;28;20053;-62
2021/07/10 02:13:37;;;;;;;18.30;14.63;;;;;;;15.71;100.00;100756.91;5049010;28;20052;-61
2021/07/10 02:16:04;;;;;;;16.42;14.27;;;;;;;15.67;100.00;100753.56;5048891;28;20056;-61
2021/07/10 02:18:31;;;;;;;16.05;14.35;;;;;;;15.64;100.00;100752.88;5049839;28;20053;-60
2021/07/10 02:20:57;;;;;;;17.38;14.82;;;;;;;15.62;100.00;100752.97;5053293;28;20057;-61
2021/07/10 02:23:24;;;;;;;16.80;14.63;;;;;;;15.63;100.00;100756.50;5062489;28;20048;-61
2021/07/10 02:25:50;;;;;;;18.10;14.20;;;;;;;15.61;100.00;100753.06;5052562;28;20083;-61
2021/07/10 02:28:17;;;;;;;17.63;14.77;;;;;;;15.57;100.00;100748.91;5048651;28;20049;-60
2021/07/10 02:30:43;;;;;;;17.88;14.55;;;;;;;15.52;100.00;100743.81;5042685;28;20051;-61
2021/07/10 02:33:10;;;;;;;18.50;14.63;;;;;;;15.48;100.00;100749.41;5049180;28;20049;-60
2021/07/10 02:35:37;;;;;;;17.45;14.73;;;;;;;15.39;100.00;100746.38;5055811;28;20045;-61
2021/07/10 02:38:04;;;;;;;18.85;15.85;;;;;;;15.34;100.00;100750.25;5058519;28;20128;-61
2021/07/10 02:40:31;;;;;;;17.88;15.10;;;;;;;15.30;100.00;100746.91;5055570;28;20523;-60
2021/07/10 02:42:58;;;;;;;18.65;15.40;;;;;;;15.27;100.00;100749.75;5050274;28;20385;-61
2021/07/10 02:45:24;;;;;;;17.30;14.82;;;;;;;15.25;100.00;100742.84;5053558;28;20045;-61
2021/07/10 02:47:51;;;;;;;18.58;14.85;;;;;;;15.23;100.00;100747.41;5055245;28;20063;-61
2021/07/10 02:50:21;;;;;;;18.23;14.45;;;;;;;15.21;100.00;100742.16;5049548;28;20501;-61
2021/07/10 02:52:48;;;;;;;18.42;15.10;;;;;;;15.20;100.00;100737.75;5051061;28;20063;-61
2021/07/10 02:55:15;;;;;;;17.92;15.55;;;;;;;15.19;100.00;100735.19;5044836;28;20045;-61
2021/07/10 02:57:42;;;;;;;16.67;14.95;;;;;;;15.18;100.00;100726.31;5045160;28;20049;-61
2021/07/10 03:00:12;;;;;;;18.92;15.57;;;;;;;15.17;100.00;100734.41;5049606;28;20064;-60
2021/07/10 03:02:38;;;;;;;17.17;14.50;;;;;;;15.16;100.00;100730.03;5044088;28;20049;-60
2021/07/10 03:05:07;;;;;;;17.15;14.45;;;;;;;15.14;100.00;100723.94;5050438;28;20103;-59
2021/07/10 03:07:41;;;;;;;19.17;14.70;;;;;;;15.14;100.00;100730.13;5048594;28;20048;-60
2021/07/10 03:10:19;;;;;;;17.58;14.77;;;;;;;15.11;100.00;100727.63;5045654;28;20524;-61
2021/07/10 03:12:46;;;;;;;16.92;14.82;;;;;;;15.07;100.00;100731.47;5043261;28;20444;-57
2021/07/10 03:15:15;;;;;;;18.23;15.18;;;;;;;15.03;100.00;100722.78;5046210;28;20053;-62
2021/07/10 03:17:45;;;;;;;17.33;14.80;;;;;;;15.00;100.00;100728.28;5046657;28;20045;-60
2021/07/10 03:20:13;;;;;;;18.60;15.25;;;;;;;15.01;100.00;100732.69;5045275;28;20056;-60
2021/07/10 03:22:40;;;;;;;17.60;15.23;;;;;;;14.99;100.00;100739.91;5030113;28;20448;-58
2021/07/10 03:25:09;;;;;;;21.50;15.70;;;;;;;14.97;100.00;100723.13;5054401;28;20052;-60
2021/07/10 03:27:36;;;;;;;18.42;14.43;;;;;;;15.03;100.00;100732.59;5045290;28;20052;-62
2021/07/10 03:30:05;;;;;;;17.55;14.63;;;;;;;15.05;100.00;100736.03;5051318;28;20057;-60
2021/07/10 03:32:31;;;;;;;17.27;14.77;;;;;;;15.06;100.00;100732.41;5046207;28;20048;-61
2021/07/10 03:34:58;;;;;;;15.93;14.23;;;;;;;15.09;100.00;100742.91;5052534;28;20142;-61
2021/07/10 03:37:24;;;;;;;16.75;14.98;;;;;;;15.12;100.00;100733.81;5045309;28;20051;-59
2021/07/10 03:39:51;;;;;;;17.23;14.90;;;;;;;15.13;100.00;100735.53;5046886;28;20056;-59
2021/07/10 03:42:18;;;;;;;17.75;14.40;;;;;;;15.17;100.00;100743.28;5039271;28;20045;-61
2021/07/10 03:44:44;;;;;;;17.67;15.23;;;;;;;15.19;100.00;100727.19;5050697;28;20061;-61
2021/07/10 03:47:11;;;;;;;14.98;13.45;;;;;;;15.19;100.00;100728.03;5047264;28;20048;-61
2021/07/10 03:49:37;;;;;;;20.83;17.70;;;;;;;15.20;100.00;100728.91;5045643;28;20049;-60
2021/07/10 03:52:04;;;;;;;18.05;14.00;;;;;;;15.17;100.00;100735.28;5046372;28;20045;-60
2021/07/10 03:54:30;;;;;;;20.48;13.80;;;;;;;15.12;100.00;100726.69;5045488;28;20452;-60
2021/07/10 03:56:57;;;;;;;14.57;12.38;;;;;;;15.09;100.00;100727.75;5045718;28;20787;-61
2021/07/10 03:59:23;;;;;;;17.92;13.80;;;;;;;15.11;100.00;100724.97;5044325;28;20672;-61
2021/07/10 04:01:50;;;;;;;17.25;13.68;;;;;;;15.09;100.00;100726.91;5049364;28;20067;-61
2021/07/10 04:04:17;;;;;;;15.75;14.15;;;;;;;15.09;100.00;100727.75;5046336;28;20049;-60
2021/07/10 04:06:43;;;;;;;16.42;13.65;;;;;;;15.14;99.89;100734.59;5051131;28;20519;-58
2021/07/10 04:09:10;;;;;;;14.95;13.35;;;;;;;15.17;99.62;100735.28;5045999;28;20067;-61
2021/07/10 04:11:36;;;;;;;15.57;13.95;;;;;;;15.19;99.39;100730.72;5041853;28;20068;-61
2021/07/10 04:14:03;;;;;;;15.32;13.73;;;;;;;15.23;98.91;100736.72;5048170;28;20044;-61
2021/07/10 04:16:30;;;;;;;20.88;14.95;;;;;;;15.25;98.58;100734.81;5045394;28;20063;-61
2021/07/10 04:18:56;;;;;;;21.02;15.18;;;;;;;15.26;98.64;100731.22;5048517;28;20060;-61
2021/07/10 04:21:23;;;;;;;16.33;14.68;;;;;;;15.31;98.72;100731.75;5041044;28;20086;-60
2021/07/10 04:23:51;;;;;;;17.58;14.68;;;;;;;15.36;98.79;100727.88;5041680;28;20053;-63
2021/07/10 04:26:17;;;;;;;16.10;14.30;;;;;;;15.39;98.19;100722.34;5041064;28;20067;-60
2021/07/10 04:28:44;;;;;;;20.98;14.90;;;;;;;15.40;98.09;100725.88;5025756;28;20041;-61
2021/07/10 04:31:10;;;;;;;18.48;15.40;;;;;;;15.39;97.34;100718.81;5048786;28;20044;-59
2021/07/10 04:33:38;;;;;;;17.13;14.65;;;;;;;15.38;98.01;100722.44;5045261;28;20751;-60
2021/07/10 04:36:05;;;;;;;16.67;14.88;;;;;;;15.45;98.46;100723.75;5047882;28;20051;-60
2021/07/10 04:38:32;;;;;;;15.90;13.52;;;;;;;15.51;98.35;100723.41;5048435;28;20041;-61
2021/07/10 04:40:58;;;;;;;17.70;15.32;;;;;;;15.54;97.26;100719.69;5050048;28;20602;-61
2021/07/10 04:43:25;;;;;;;17.48;15.65;;;;;;;15.54;96.88;100728.56;5054716;28;20092;-61
2021/07/10 04:45:51;;;;;;;17.63;15.75;;;;;;;15.61;97.54;100721.88;5051891;28;20167;-61
2021/07/10 04:48:18;;;;;;;19.10;15.93;;;;;;;15.74;97.21;100735.34;5045855;28;20051;-60
2021/07/10 04:50:44;;;;;;;18.77;15.52;;;;;;;15.85;96.95;100730.19;5043605;28;20048;-61
2021/07/10 04:53:11;;;;;;;17.17;14.82;;;;;;;15.93;96.61;100735.03;5049799;28;20488;-58
2021/07/10 04:55:37;;;;;;;16.42;14.38;;;;;;;16.00;96.05;100723.88;5045716;28;20033;-61
2021/07/10 04:58:04;;;;;;;17.05;14.90;;;;;;;16.07;95.98;100733.19;5042889;28;20045;-60
2021/07/10 05:00:30;;;;;;;16.33;14.63;;;;;;;16.11;94.48;100728.50;5045132;28;20057;-61
2021/07/10 05:02:57;;;;;;;17.98;15.50;;;;;;;16.09;94.17;100722.41;5046125;28;20055;-62
2021/07/10 05:05:23;;;;;;;18.92;15.80;;;;;;;16.06;94.24;100723.44;5047370;28;20049;-61
2021/07/10 05:07:50;;;;;;;16.90;14.98;;;;;;;16.03;94.32;100726.34;5044516;28;20067;-63
2021/07/10 05:10:17;;;;;;;17.75;15.68;;;;;;;16.02;94.50;100723.78;5049034;28;20055;-61
2021/07/10 05:12:44;;;;;;;18.27;14.68;;;;;;;16.01;94.45;100727.41;5038340;28;20515;-61
2021/07/10 05:15:12;;;;;;;18.58;15.13;;;;;;;16.04;94.75;100727.19;5043336;28;20044;-60
2021/07/10 05:17:38;;;;;;;19.15;17.10;;;;;;;16.07;94.50;100732.31;5039976;28;20175;-61
2021/07/10 05:20:08;;;;;;;17.27;15.32;;;;;;;16.05;94.33;100723.56;5055149;28;20124;-59
2021/07/10 05:22:35;;;;;;;18.95;15.90;;;;;;;16.07;94.19;100719.81;5043926;28;20653;-60
2021/07/10 05:25:03;;;;;;;18.65;16.67;;;;;;;16.13;94.44;100716.75;5050674;28;20416;-61
2021/07/10 05:27:29;;;;;;;20.65;16.17;;;;;;;16.23;93.79;100710.81;5047069;28;20041;-61
2021/07/10 05:29:56;;;;;;;16.90;14.80;;;;;;;16.37;93.01;100714.28;5044453;28;20048;-61
2021/07/10 05:32:22;;;;;;;18.38;16.38;;;;;;;16.44;92.37;100712.94;5041362;28;20984;-60
2021/07/10 05:34:49;;;;;;;18.42;15.27;;;;;;;16.45;92.17;100711.97;5045734;28;20049;-61
2021/07/10 05:37:15;;;;;;;17.95;16.05;;;;;;;16.46;91.32;100712.84;5042614;28;20052;-59
2021/07/10 05:39:42;;;;;;;16.80;15.05;;;;;;;16.49;91.04;100718.84;5041577;28;20063;-61
2021/07/10 05:42:10;;;;;;;16.20;14.45;;;;;;;16.51;91.09;100715.22;5041505;28;20834;-61
2021/07/10 05:44:37;;;;;;;19.13;15.77;;;;;;;16.58;90.60;100719.19;5040869;28;20049;-61
2021/07/10 05:47:04;;;;;;;20.95;15.60;;;;;;;16.57;89.28;100709.44;5052714;28;20533;-60
2021/07/10 05:49:30;;;;;;;17.10;14.40;;;;;;;16.64;90.15;100713.47;5043480;28;20057;-59
2021/07/10 05:51:57;;;;;;;16.70;14.90;;;;;;;16.69;89.06;100709.50;5044113;28;20065;-60
2021/07/10 05:54:23;;;;;;;16.42;14.52;;;;;;;16.77;88.97;100717.03;5057998;28;20526;-60
2021/07/10 05:56:50;;;;;;;21.13;15.70;;;;;;;16.83;88.74;100712.13;5048226;28;20049;-60
2021/07/10 05:59:16;;;;;;;17.95;14.25;;;;;;;16.89;88.77;100710.84;5060319;28;20055;-60
2021/07/10 06:01:43;;;;;;;18.65;15.75;;;;;;;16.98;88.13;100709.38;5050206;28;20055;-61
2021/07/10 06:04:10;;;;;;;16.33;14.60;;;;;;;17.06;87.65;100707.88;5053397;28;20056;-60
2021/07/10 06:06:36;;;;;;;16.50;14.38;;;;;;;17.19;87.08;100713.22;5042689;28;20071;-62
2021/07/10 06:09:03;;;;;;;20.65;16.02;;;;;;;17.40;85.46;100706.38;5043065;28;20049;-58
2021/07/10 06:11:32;;;;;;;16.45;14.00;;;;;;;17.62;85.66;100705.72;5049793;28;20080;-60
2021/07/10 06:13:59;;;;;;;18.40;14.77;;;;;;;17.87;84.44;100707.53;5050559;28;20098;-64
2021/07/10 06:16:25;;;;;;;15.57;13.82;;;;;;;18.06;82.58;100705.22;5051730;28;20418;-62
2021/07/10 06:18:52;;;;;;;16.42;14.82;;;;;;;18.33;80.27;100707.69;5056354;28;20038;-61
2021/07/10 06:21:18;;;;;;;14.50;12.35;;;;;;;18.55;80.99;100705.13;5063934;28;20059;-61
2021/07/10 06:23:45;;;;;;;14.10;12.60;;;;;;;18.89;80.97;100699.88;5048654;28;20070;-62
2021/07/10 06:26:12;;;;;;;14.18;12.40;;;;;;;19.36;77.31;100706.94;5056449;28;20040;-61
2021/07/10 06:28:39;;;;;;;13.85;12.32;;;;;;;19.75;74.28;100699.41;5062087;28;20147;-61
2021/07/10 06:31:05;;;;;;;16.15;13.98;;;;;;;19.95;72.61;100710.28;5060290;28;20053;-61
2021/07/10 06:33:32;;;;;;;15.60;13.07;;;;;;;20.18;74.74;100704.84;5062380;28;20041;-60
2021/07/10 06:35:58;;;;;;;14.15;12.60;;;;;;;20.57;72.98;100712.34;5066752;28;20040;-60
2021/07/10 06:38:25;;;;;;;17.15;12.68;;;;;;;20.83;71.93;100709.28;5059420;28;20052;-59
2021/07/10 06:40:51;;;;;;;12.98;11.75;;;;;;;21.04;69.56;100710.16;5044628;28;20056;-61
2021/07/10 06:43:18;;;;;;;17.58;12.15;;;;;;;21.11;69.72;100703.25;5048323;28;20056;-61
2021/07/10 06:45:44;;;;;;;12.82;11.45;;;;;;;21.29;69.90;100715.16;5043808;28;20424;-61
2021/07/10 06:48:11;;;;;;;14.95;13.35;;;;;;;21.30;67.88;100708.78;5045057;28;20056;-59
2021/07/10 06:50:37;;;;;;;14.25;12.80;;;;;;;21.37;66.66;100721.75;5058470;28;20136;-62
2021/07/10 06:53:04;;;;;;;13.85;12.30;;;;;;;21.53;67.02;100703.25;5043707;28;20401;-61
2021/07/10 06:55:30;;;;;;;14.82;12.98;;;;;;;21.53;66.74;100709.50;5018024;28;20064;-60
2021/07/10 06:57:57;;;;;;;13.82;12.13;;;;;;;21.46;67.72;100702.91;5033931;28;20433;-61
2021/07/10 07:00:23;;;;;;;15.35;13.35;;;;;;;21.56;67.63;100703.00;5029550;28;20053;-61
2021/07/10 07:02:50;;;;;;;16.85;13.18;;;;;;;21.78;66.90;100702.78;5037700;28;20436;-62
2021/07/10 07:05:16;;;;;;;16.60;13.45;;;;;;;21.70;66.41;100699.94;5030482;28;20056;-61
2021/07/10 07:07:43;;;;;;;15.90;13.20;;;;;;;21.87;67.14;100712.75;5025217;28;20669;-59
2021/07/10 07:10:11;;;;;;;17.85;13.60;;;;;;;22.18;64.57;100704.66;5035042;28;20048;-60
2021/07/10 07:12:39;;;;;;;15.65;13.65;;;;;;;22.11;63.73;100704.34;5026412;28;20049;-61
2021/07/10 07:15:07;;;;;;;18.17;14.43;;;;;;;22.06;64.65;100709.28;5017470;28;20062;-61
2021/07/10 07:17:34;;;;;;;18.77;15.02;;;;;;;21.90;64.61;100706.22;5022130;28;20052;-60
2021/07/10 07:20:01;;;;;;;15.88;14.18;;;;;;;21.68;64.78;100708.16;5024674;28;20053;-62
2021/07/10 07:22:27;;;;;;;16.20;14.48;;;;;;;21.54;68.01;100696.88;5030507;28;20132;-61
2021/07/10 07:24:54;;;;;;;20.45;15.40;;;;;;;21.61;65.89;100688.09;5039827;28;20515;-61
2021/07/10 07:27:20;;;;;;;19.30;14.63;;;;;;;21.72;66.41;100691.72;5023451;28;20053;-59
2021/07/10 07:29:47;;;;;;;19.33;15.43;;;;;;;21.99;64.53;100690.13;5029108;28;20053;-62
2021/07/10 07:32:13;;;;;;;17.73;13.40;;;;;;;22.28;65.23;100683.91;5024374;28;20165;-60
2021/07/10 07:34:40;;;;;;;19.85;15.45;;;;;;;22.33;62.76;100681.66;5032837;28;20065;-57
2021/07/10 07:37:07;;;;;;;18.42;15.57;;;;;;;22.28;63.36;100684.78;5022709;28;20041;-56
2021/07/10 07:39:33;;;;;;;18.98;15.88;;;;;;;22.16;63.76;100685.91;5021621;28;20739;-56
2021/07/10 07:42:00;;;;;;;22.08;15.77;;;;;;;22.13;63.65;100685.31;5019132;28;20063;-55
2021/07/10 07:44:26;;;;;;;23.75;15.90;;;;;;;22.14;63.91;100684.31;5034419;28;20055;-57
2021/07/10 07:46:53;;;;;;;18.75;16.00;;;;;;;21.98;65.19;100679.44;5024153;28;20038;-58
2021/07/10 07:49:19;;;;;;;20.00;15.80;;;;;;;22.10;65.98;100669.41;5027328;28;20049;-58
2021/07/10 07:51:45;;;;;;;19.65;16.27;;;;;;;22.14;64.48;100673.53;5043345;28;20045;-57
2021/07/10 07:54:12;;;;;;;21.02;16.88;;;;;;;22.25;64.38;100662.63;5049605;28;20053;-58
2021/07/10 07:56:38;;;;;;;17.27;15.43;;;;;;;22.22;63.54;100669.13;5046248;28;20051;-57
2021/07/10 07:59:05;;;;;;;20.30;16.02;;;;;;;22.21;63.73;100663.88;5039226;28;20040;-57
2021/07/10 08:01:32;;;;;;;18.70;15.07;;;;;;;22.32;65.65;100664.63;5036062;28;20483;-57
2021/07/10 08:03:59;;;;;;;19.63;15.48;;;;;;;22.52;63.12;100668.16;5038001;28;20056;-59
2021/07/10 08:06:25;;;;;;;19.50;14.35;;;;;;;22.60;63.89;100662.91;5026451;28;20415;-56
2021/07/10 08:08:52;;;;;;;18.05;16.20;;;;;;;22.74;62.37;100661.63;5043605;28;20056;-57
2021/07/10 08:11:18;;;;;;;17.55;15.50;;;;;;;22.85;62.64;100656.09;5042454;28;20045;-57
2021/07/10 08:13:46;;;;;;;18.88;15.30;;;;;;;22.82;61.27;100652.84;5042518;28;20049;-57
2021/07/10 08:16:13;;;;;;;19.08;16.05;;;;;;;22.54;62.16;100659.91;5041260;28;20041;-57
2021/07/10 08:18:39;;;;;;;20.27;16.10;;;;;;;22.47;62.24;100656.09;5032173;28;20060;-58
2021/07/10 08:21:07;;;;;;;19.45;16.15;;;;;;;22.44;62.97;100651.00;5035502;28;20048;-58
2021/07/10 08:23:34;;;;;;;19.67;14.60;;;;;;;22.53;63.81;100661.78;5046846;28;20049;-58
2021/07/10 08:26:01;;;;;;;17.08;14.82;;;;;;;22.75;62.41;100649.84;5040622;28;20504;-57
2021/07/10 08:28:27;;;;;;;21.50;15.45;;;;;;;22.91;61.44;100642.03;5050123;28;20057;-59
2021/07/10 08:30:54;;;;;;;20.73;15.35;;;;;;;22.93;62.49;100642.72;5043800;28;20067;-59
2021/07/10 08:33:20;;;;;;;18.95;15.75;;;;;;;22.97;62.48;100637.91;5047243;28;20075;-56
2021/07/10 08:35:47;;;;;;;18.05;13.82;;;;;;;23.05;62.74;100636.16;5044196;28;20041;-57
2021/07/10 08:38:14;;;;;;;15.93;13.07;;;;;;;23.12;62.88;100636.44;5040728;28;20061;-55
2021/07/10 08:40:40;;;;;;;16.52;13.85;;;;;;;23.20;62.14;100631.13;5042804;28;20053;-57
2021/07/10 08:43:07;;;;;;;17.27;14.15;;;;;;;23.29;61.55;100627.56;5051918;28;20052;-56
2021/07/10 08:45:35;;;;;;;18.75;14.05;;;;;;;23.32;61.87;100624.53;5037967;28;20087;-57
2021/07/10 08:48:03;;;;;;;19.15;13.32;;;;;;;23.28;61.25;100622.31;5043735;28;20057;-56
2021/07/10 08:50:31;;;;;;;17.55;14.00;;;;;;;23.23;61.63;100627.28;5048197;28;20045;-57
2021/07/10 08:52:58;;;;;;;15.30;13.73;;;;;;;23.24;61.46;100629.84;5046488;28;20045;-57
2021/07/10 08:55:25;;;;;;;13.32;11.68;;;;;;;23.32;62.46;100621.84;5038084;28;20048;-56
2021/07/10 08:57:56;;;;;;;17.15;13.00;;;;;;;23.40;61.04;100624.66;5050931;28;20044;-56
2021/07/10 09:00:38;;;;;;;13.48;12.10;;;;;;;23.43;60.23;100620.81;5046652;28;20053;-55
2021/07/10 09:03:06;;;;;;;16.17;13.45;;;;;;;23.40;60.63;100618.41;5035620;28;20055;-58
2021/07/10 09:05:37;;;;;;;16.33;14.30;;;;;;;23.38;58.91;100623.97;5047331;28;20052;-56
2021/07/10 09:08:23;;;;;;;14.05;12.13;;;;;;;23.34;58.21;100625.25;5052790;28;20082;-57
2021/07/10 09:11:07;;;;;;;16.95;12.80;;;;;;;23.30;60.16;100620.28;5046172;28;20123;-57
2021/07/10 09:13:41;;;;;;;14.73;12.68;;;;;;;23.33;59.81;100612.75;5037788;28;20049;-56
2021/07/10 09:16:22;;;;;;;13.88;12.35;;;;;;;23.32;59.83;100615.59;5042083;28;20052;-57
2021/07/10 09:18:54;;;;;;;9.90;8.65;;;;;;;23.29;55.28;100610.50;5041858;28;20045;-56
2021/07/10 09:21:46;;;;;;;9.20;7.80;;;;;;;23.25;54.10;100603.69;5041328;28;20068;-56
2021/07/10 09:24:17;;;;;;;8.07;6.50;;;;;;;23.38;54.75;100605.03;5049978;28;20136;-57
2021/07/10 09:26:47;;;;;;;7.93;7.07;;;;;;;23.51;54.02;100598.44;5034308;28;20042;-57
2021/07/10 09:29:15;;;;;;;7.30;6.53;;;;;;;23.63;52.95;100602.66;5048175;28;20053;-58
2021/07/10 09:31:47;;;;;;;8.30;7.18;;;;;;;23.69;51.79;100600.22;5041415;28;20111;-57
2021/07/10 09:34:17;;;;;;;8.73;7.80;;;;;;;23.60;53.51;100597.59;5044387;28;20071;-58
2021/07/10 09:37:13;;;;;;;;;;;;;;;23.69;53.37;100591.25;5044160;28;20049;-56
2021/07/10 09:39:54;;;;;;;10.65;7.60;;;;;;;23.67;53.08;100594.09;5031965;28;19963;-56
2021/07/10 09:42:44;;;;;;;9.95;6.40;;;;;;;23.56;52.01;100582.66;5044564;28;20269;-55
2021/07/10 09:45:22;;;;;;;8.38;6.97;;;;;;;23.49;52.46;100585.06;5044916;28;20053;-55
2021/07/10 09:47:49;;;;;;;8.43;6.43;;;;;;;23.52;52.74;100581.25;5051512;28;20114;-55
2021/07/10 09:50:19;;;;;;;9.27;6.25;;;;;;;23.58;51.96;100575.25;5045050;28;20056;-55
2021/07/10 09:52:45;;;;;;;10.30;7.10;;;;;;;23.63;52.11;100578.34;5047393;28;20059;-56
2021/07/10 09:55:14;;;;;;;9.82;6.78;;;;;;;23.73;52.71;100576.44;5050076;28;20080;-56
2021/07/10 09:57:42;;;;;;;7.07;6.10;;;;;;;23.90;53.06;100572.06;5049183;28;20059;-55
2021/07/10 10:00:09;;;;;;;10.00;6.55;;;;;;;24.08;53.11;100568.34;5054281;28;20071;-55
2021/07/10 10:02:45;;;;;;;7.25;6.55;;;;;;;24.24;52.86;100561.44;5047007;28;20079;-55
2021/07/10 10:05:13;;;;;;;8.18;6.55;;;;;;;24.33;53.12;100557.78;5044801;28;20045;-55
2021/07/10 10:07:47;;;;;;;6.55;5.95;;;;;;;24.45;52.30;100561.94;5045053;28;20053;-56
2021/07/10 10:10:24;;;;;;;6.63;5.97;;;;;;;24.42;51.40;100554.97;5045933;28;20518;-56
2021/07/10 10:13:07;;;;;;;8.43;6.03;;;;;;;24.28;50.26;100554.69;5054632;28;20415;-57
2021/07/10 10:15:36;;;;;;;7.72;5.97;;;;;;;24.14;50.97;100543.38;5054213;28;20075;-55
2021/07/10 10:18:04;;;;;;;6.53;5.78;;;;;;;24.09;51.20;100542.97;5062489;28;20057;-54
2021/07/10 10:20:31;;;;;;;6.38;5.75;;;;;;;24.23;51.99;100538.03;5039366;28;20049;-55
2021/07/10 10:23:00;;;;;;;6.05;5.45;;;;;;;24.45;51.97;100540.28;5041064;28;20045;-55
2021/07/10 10:25:28;;;;;;;6.00;5.50;;;;;;;24.66;51.70;100535.34;5041820;28;20085;-56
2021/07/10 10:27:55;;;;;;;7.15;5.93;;;;;;;24.80;50.44;100534.75;5055807;28;20049;-55
2021/07/10 10:30:22;;;;;;;6.78;5.93;;;;;;;24.92;51.60;100529.06;5052781;28;20393;-55
2021/07/10 10:32:50;;;;;;;6.75;6.13;;;;;;;24.97;50.13;100529.47;5044877;28;20056;-56
2021/07/10 10:35:18;;;;;;;6.28;5.65;;;;;;;24.97;49.53;100529.47;5037392;28;20413;-55
2021/07/10 10:37:50;;;;;;;6.88;6.18;;;;;;;24.86;50.00;100521.59;5041573;28;20045;-55
2021/07/10 10:40:21;;;;;;;7.10;6.13;;;;;;;24.68;50.39;100514.38;5039915;28;20050;-55
2021/07/10 10:42:55;;;;;;;7.03;5.57;;;;;;;24.59;50.94;100514.47;5038380;28;20060;-55
2021/07/10 10:45:27;;;;;;;5.95;4.97;;;;;;;24.58;49.82;100516.34;5039869;28;20605;-56
2021/07/10 10:47:54;;;;;;;6.78;5.30;;;;;;;24.51;49.73;100509.03;5040601;28;20045;-56
2021/07/10 10:50:27;;;;;;;6.28;5.38;;;;;;;24.65;50.06;100513.84;5038704;28;20041;-57
2021/07/10 10:52:59;;;;;;;5.65;5.03;;;;;;;24.81;50.22;100512.09;5044303;28;20061;-57
2021/07/10 10:55:31;;;;;;;5.43;4.93;;;;;;;25.07;50.58;100508.50;5040682;28;20080;-56
2021/07/10 10:57:58;;;;;;;;;;;;;;;25.27;48.51;100509.09;5038865;28;20119;-59
2021/07/10 11:00:32;;;;;;;9.10;5.95;;;;;;;25.44;48.75;100500.88;5029216;28;19929;-56
2021/07/10 11:03:04;;;;;;;5.32;4.82;;;;;;;25.62;46.70;100497.22;5037245;28;20056;-57
2021/07/10 11:05:33;;;;;;;6.15;5.00;;;;;;;25.65;47.06;100497.75;5042118;28;20057;-57
2021/07/10 11:08:18;;;;;;;6.13;4.80;;;;;;;25.75;45.77;100503.00;5036556;28;20695;-57
2021/07/10 11:10:54;;;;;;;5.07;4.55;;;;;;;25.76;46.83;100493.84;5038142;28;20073;-58
2021/07/10 11:13:38;;;;;;;4.88;4.38;;;;;;;25.79;47.09;100498.94;5050595;28;20401;-57